sensor_id;sensor_type;location;lat;lon;timestamp;P1;durP1;ratioP1;P2;durP2;ratioP2
70487;SDS011;57976;48.174;16.370;2023-06-26T00:01:02;10.80;;;6.30;;
70487;SDS011;57976;48.174;16.370;2023-06-26T00:03:08;10.40;;;5.90;;
70487;SDS011;57976;48.174;16.370;2023-06-26T00:05:13;10.50;;;6.00;;
70487;SDS011;57976;48.174;16.370;2023-06-26T00:07:18;9.70;;;6.10;;
70487;SDS011;57976;48.174;16.370;2023-06-26T00:09:25;11.40;;;7.00;;
70487;SDS011;57976;48.174;16.370;2023-06-26T00:11:30;10.80;;;6.20;;
70487;SDS011;57976;48.174;16.370;2023-06-26T00:13:36;10.20;;;5.80;;
70487;SDS011;57976;48.174;16.370;2023-06-26T00:15:41;9.50;;;5.80;;
70487;SDS011;57976;48.174;16.370;2023-06-26T00:17:45;9.90;;;6.10;;
70487;SDS011;57976;48.174;16.370;2023-06-26T00:19:53;10.50;;;5.60;;
70487;SDS011;57976;48.174;16.370;2023-06-26T00:21:58;9.40;;;5.60;;
70487;SDS011;57976;48.174;16.370;2023-06-26T00:24:03;11.00;;;5.90;;
70487;SDS011;57976;48.174;16.370;2023-06-26T00:26:08;9.60;;;5.80;;
70487;SDS011;57976;48.174;16.370;2023-06-26T00:28:13;9.30;;;5.70;;
70487;SDS011;57976;48.174;16.370;2023-06-26T00:30:17;9.60;;;5.70;;
70487;SDS011;57976;48.174;16.370;2023-06-26T00:32:22;9.20;;;5.60;;
70487;SDS011;57976;48.174;16.370;2023-06-26T00:34:30;9.60;;;5.40;;
70487;SDS011;57976;48.174;16.370;2023-06-26T00:36:35;9.60;;;5.20;;
70487;SDS011;57976;48.174;16.370;2023-06-26T00:38:40;8.90;;;5.10;;
70487;SDS011;57976;48.174;16.370;2023-06-26T00:40:44;9.40;;;5.00;;
70487;SDS011;57976;48.174;16.370;2023-06-26T00:42:49;9.10;;;5.50;;
70487;SDS011;57976;48.174;16.370;2023-06-26T00:44:54;10.50;;;5.20;;
70487;SDS011;57976;48.174;16.370;2023-06-26T00:47:06;9.60;;;5.20;;
70487;SDS011;57976;48.174;16.370;2023-06-26T00:49:12;9.90;;;5.30;;
70487;SDS011;57976;48.174;16.370;2023-06-26T00:51:17;9.60;;;5.60;;
70487;SDS011;57976;48.174;16.370;2023-06-26T00:53:23;8.60;;;5.20;;
70487;SDS011;57976;48.174;16.370;2023-06-26T00:55:27;9.50;;;5.20;;
70487;SDS011;57976;48.174;16.370;2023-06-26T00:57:36;10.10;;;5.10;;
70487;SDS011;57976;48.174;16.370;2023-06-26T00:59:44;9.30;;;5.50;;
70487;SDS011;57976;48.174;16.370;2023-06-26T01:01:50;10.30;;;5.50;;
70487;SDS011;57976;48.174;16.370;2023-06-26T01:03:57;9.40;;;5.70;;
70487;SDS011;57976;48.174;16.370;2023-06-26T01:06:03;9.00;;;5.30;;
70487;SDS011;57976;48.174;16.370;2023-06-26T01:08:08;9.10;;;5.70;;
70487;SDS011;57976;48.174;16.370;2023-06-26T01:10:14;9.20;;;5.30;;
70487;SDS011;57976;48.174;16.370;2023-06-26T01:12:19;8.90;;;5.20;;
70487;SDS011;57976;48.174;16.370;2023-06-26T01:14:25;11.20;;;5.40;;
70487;SDS011;57976;48.174;16.370;2023-06-26T01:16:29;8.60;;;5.10;;
70487;SDS011;57976;48.174;16.370;2023-06-26T01:18:35;9.30;;;5.40;;
70487;SDS011;57976;48.174;16.370;2023-06-26T01:20:41;8.70;;;4.90;;
70487;SDS011;57976;48.174;16.370;2023-06-26T01:22:51;11.70;;;5.50;;
70487;SDS011;57976;48.174;16.370;2023-06-26T01:25:09;8.40;;;4.90;;
70487;SDS011;57976;48.174;16.370;2023-06-26T01:27:20;9.50;;;5.10;;
70487;SDS011;57976;48.174;16.370;2023-06-26T01:29:26;9.60;;;5.20;;
70487;SDS011;57976;48.174;16.370;2023-06-26T01:31:35;9.50;;;5.50;;
70487;SDS011;57976;48.174;16.370;2023-06-26T01:33:42;9.20;;;5.20;;
70487;SDS011;57976;48.174;16.370;2023-06-26T01:35:48;9.40;;;5.30;;
70487;SDS011;57976;48.174;16.370;2023-06-26T01:37:53;9.10;;;5.10;;
70487;SDS011;57976;48.174;16.370;2023-06-26T01:40:13;8.80;;;5.20;;
70487;SDS011;57976;48.174;16.370;2023-06-26T01:42:18;8.90;;;5.10;;
70487;SDS011;57976;48.174;16.370;2023-06-26T01:44:25;9.30;;;5.20;;
70487;SDS011;57976;48.174;16.370;2023-06-26T01:46:35;9.40;;;5.50;;
70487;SDS011;57976;48.174;16.370;2023-06-26T01:48:45;9.30;;;5.40;;
70487;SDS011;57976;48.174;16.370;2023-06-26T01:50:55;11.30;;;5.30;;
70487;SDS011;57976;48.174;16.370;2023-06-26T01:53:04;9.90;;;5.50;;
70487;SDS011;57976;48.174;16.370;2023-06-26T01:55:17;11.10;;;5.30;;
70487;SDS011;57976;48.174;16.370;2023-06-26T01:57:28;9.20;;;5.30;;
70487;SDS011;57976;48.174;16.370;2023-06-26T01:59:34;10.80;;;5.80;;
70487;SDS011;57976;48.174;16.370;2023-06-26T02:01:40;8.60;;;5.00;;
70487;SDS011;57976;48.174;16.370;2023-06-26T02:03:44;9.90;;;5.10;;
70487;SDS011;57976;48.174;16.370;2023-06-26T02:05:53;9.50;;;5.20;;
70487;SDS011;57976;48.174;16.370;2023-06-26T02:08:01;8.90;;;5.00;;
70487;SDS011;57976;48.174;16.370;2023-06-26T02:10:07;9.00;;;5.30;;
70487;SDS011;57976;48.174;16.370;2023-06-26T02:12:15;9.30;;;4.90;;
70487;SDS011;57976;48.174;16.370;2023-06-26T02:14:20;9.20;;;5.10;;
70487;SDS011;57976;48.174;16.370;2023-06-26T02:16:25;8.90;;;5.40;;
70487;SDS011;57976;48.174;16.370;2023-06-26T02:18:30;9.20;;;5.00;;
70487;SDS011;57976;48.174;16.370;2023-06-26T02:20:35;9.90;;;5.10;;
70487;SDS011;57976;48.174;16.370;2023-06-26T02:22:40;8.80;;;5.00;;
70487;SDS011;57976;48.174;16.370;2023-06-26T02:24:45;9.70;;;5.00;;
70487;SDS011;57976;48.174;16.370;2023-06-26T02:26:50;9.10;;;5.20;;
70487;SDS011;57976;48.174;16.370;2023-06-26T02:28:54;8.90;;;5.30;;
70487;SDS011;57976;48.174;16.370;2023-06-26T02:30:59;9.40;;;5.40;;
70487;SDS011;57976;48.174;16.370;2023-06-26T02:33:08;9.40;;;5.00;;
70487;SDS011;57976;48.174;16.370;2023-06-26T02:35:13;10.00;;;5.30;;
70487;SDS011;57976;48.174;16.370;2023-06-26T02:37:21;8.90;;;5.30;;
70487;SDS011;57976;48.174;16.370;2023-06-26T02:39:26;9.30;;;5.40;;
70487;SDS011;57976;48.174;16.370;2023-06-26T02:41:37;9.30;;;5.20;;
70487;SDS011;57976;48.174;16.370;2023-06-26T02:43:46;8.90;;;5.10;;
70487;SDS011;57976;48.174;16.370;2023-06-26T02:45:51;10.50;;;5.40;;
70487;SDS011;57976;48.174;16.370;2023-06-26T02:47:57;12.60;;;7.20;;
70487;SDS011;57976;48.174;16.370;2023-06-26T02:50:04;10.40;;;5.60;;
70487;SDS011;57976;48.174;16.370;2023-06-26T02:52:24;10.00;;;5.50;;
70487;SDS011;57976;48.174;16.370;2023-06-26T02:54:35;9.50;;;5.20;;
70487;SDS011;57976;48.174;16.370;2023-06-26T02:56:40;9.90;;;5.30;;
70487;SDS011;57976;48.174;16.370;2023-06-26T02:59:11;9.80;;;5.40;;
70487;SDS011;57976;48.174;16.370;2023-06-26T03:01:17;10.40;;;5.30;;
70487;SDS011;57976;48.174;16.370;2023-06-26T03:03:21;11.00;;;6.10;;
70487;SDS011;57976;48.174;16.370;2023-06-26T03:05:30;9.40;;;5.30;;
70487;SDS011;57976;48.174;16.370;2023-06-26T03:07:54;10.30;;;5.50;;
70487;SDS011;57976;48.174;16.370;2023-06-26T03:09:59;9.40;;;5.10;;
70487;SDS011;57976;48.174;16.370;2023-06-26T03:12:04;9.20;;;5.00;;
70487;SDS011;57976;48.174;16.370;2023-06-26T03:14:10;9.20;;;5.20;;
70487;SDS011;57976;48.174;16.370;2023-06-26T03:16:16;9.20;;;5.20;;
70487;SDS011;57976;48.174;16.370;2023-06-26T03:18:21;10.10;;;5.20;;
70487;SDS011;57976;48.174;16.370;2023-06-26T03:20:25;9.50;;;5.00;;
70487;SDS011;57976;48.174;16.370;2023-06-26T03:22:34;10.30;;;5.40;;
70487;SDS011;57976;48.174;16.370;2023-06-26T03:24:39;10.90;;;5.80;;
70487;SDS011;57976;48.174;16.370;2023-06-26T03:26:44;9.70;;;5.40;;
70487;SDS011;57976;48.174;16.370;2023-06-26T03:28:50;10.20;;;5.60;;
70487;SDS011;57976;48.174;16.370;2023-06-26T03:30:55;9.60;;;5.50;;
70487;SDS011;57976;48.174;16.370;2023-06-26T03:33:00;8.50;;;5.40;;
70487;SDS011;57976;48.174;16.370;2023-06-26T03:35:08;8.70;;;5.40;;
70487;SDS011;57976;48.174;16.370;2023-06-26T03:37:16;8.90;;;5.30;;
70487;SDS011;57976;48.174;16.370;2023-06-26T03:39:21;8.70;;;5.30;;
70487;SDS011;57976;48.174;16.370;2023-06-26T03:41:25;10.60;;;5.90;;
70487;SDS011;57976;48.174;16.370;2023-06-26T03:43:30;8.80;;;5.50;;
70487;SDS011;57976;48.174;16.370;2023-06-26T03:45:50;10.30;;;5.50;;
70487;SDS011;57976;48.174;16.370;2023-06-26T03:47:55;9.80;;;5.20;;
70487;SDS011;57976;48.174;16.370;2023-06-26T03:49:59;10.80;;;5.90;;
70487;SDS011;57976;48.174;16.370;2023-06-26T03:52:06;10.40;;;5.30;;
70487;SDS011;57976;48.174;16.370;2023-06-26T03:54:11;9.50;;;5.40;;
70487;SDS011;57976;48.174;16.370;2023-06-26T03:56:17;11.60;;;6.30;;
70487;SDS011;57976;48.174;16.370;2023-06-26T03:58:24;9.90;;;6.00;;
70487;SDS011;57976;48.174;16.370;2023-06-26T04:00:29;9.90;;;5.80;;
70487;SDS011;57976;48.174;16.370;2023-06-26T04:02:34;10.50;;;6.00;;
70487;SDS011;57976;48.174;16.370;2023-06-26T04:04:40;15.90;;;10.10;;
70487;SDS011;57976;48.174;16.370;2023-06-26T04:06:51;12.20;;;6.60;;
70487;SDS011;57976;48.174;16.370;2023-06-26T04:08:59;8.90;;;5.60;;
70487;SDS011;57976;48.174;16.370;2023-06-26T04:11:04;11.70;;;6.30;;
70487;SDS011;57976;48.174;16.370;2023-06-26T04:13:09;10.40;;;6.10;;
70487;SDS011;57976;48.174;16.370;2023-06-26T04:15:13;11.20;;;6.10;;
70487;SDS011;57976;48.174;16.370;2023-06-26T04:17:18;11.20;;;5.90;;
70487;SDS011;57976;48.174;16.370;2023-06-26T04:19:24;9.80;;;5.60;;
70487;SDS011;57976;48.174;16.370;2023-06-26T04:21:35;12.40;;;6.90;;
70487;SDS011;57976;48.174;16.370;2023-06-26T04:23:40;9.50;;;5.70;;
70487;SDS011;57976;48.174;16.370;2023-06-26T04:25:45;11.80;;;6.20;;
70487;SDS011;57976;48.174;16.370;2023-06-26T04:27:50;10.60;;;5.80;;
70487;SDS011;57976;48.174;16.370;2023-06-26T04:29:55;10.70;;;6.30;;
70487;SDS011;57976;48.174;16.370;2023-06-26T04:32:00;10.60;;;6.40;;
70487;SDS011;57976;48.174;16.370;2023-06-26T04:34:05;11.00;;;6.00;;
70487;SDS011;57976;48.174;16.370;2023-06-26T04:36:10;10.10;;;6.10;;
70487;SDS011;57976;48.174;16.370;2023-06-26T04:38:15;11.80;;;6.60;;
70487;SDS011;57976;48.174;16.370;2023-06-26T04:40:19;10.00;;;5.90;;
70487;SDS011;57976;48.174;16.370;2023-06-26T04:42:25;11.20;;;6.40;;
70487;SDS011;57976;48.174;16.370;2023-06-26T04:44:30;10.60;;;6.30;;
70487;SDS011;57976;48.174;16.370;2023-06-26T04:46:38;11.40;;;6.40;;
70487;SDS011;57976;48.174;16.370;2023-06-26T04:48:43;10.80;;;6.50;;
70487;SDS011;57976;48.174;16.370;2023-06-26T04:50:48;11.30;;;6.70;;
70487;SDS011;57976;48.174;16.370;2023-06-26T04:52:56;11.80;;;6.50;;
70487;SDS011;57976;48.174;16.370;2023-06-26T04:55:01;11.10;;;6.70;;
70487;SDS011;57976;48.174;16.370;2023-06-26T04:57:06;12.90;;;6.90;;
70487;SDS011;57976;48.174;16.370;2023-06-26T04:59:11;10.20;;;6.20;;
70487;SDS011;57976;48.174;16.370;2023-06-26T05:01:16;9.90;;;6.30;;
70487;SDS011;57976;48.174;16.370;2023-06-26T05:03:24;11.80;;;7.10;;
70487;SDS011;57976;48.174;16.370;2023-06-26T05:05:29;10.10;;;6.50;;
70487;SDS011;57976;48.174;16.370;2023-06-26T05:07:34;11.40;;;6.80;;
70487;SDS011;57976;48.174;16.370;2023-06-26T05:09:39;11.70;;;6.80;;
70487;SDS011;57976;48.174;16.370;2023-06-26T05:11:44;10.90;;;6.70;;
70487;SDS011;57976;48.174;16.370;2023-06-26T05:13:49;11.30;;;6.70;;
70487;SDS011;57976;48.174;16.370;2023-06-26T05:15:57;10.70;;;6.60;;
70487;SDS011;57976;48.174;16.370;2023-06-26T05:18:02;10.70;;;6.60;;
70487;SDS011;57976;48.174;16.370;2023-06-26T05:20:07;11.80;;;6.70;;
70487;SDS011;57976;48.174;16.370;2023-06-26T05:22:13;14.10;;;7.50;;
70487;SDS011;57976;48.174;16.370;2023-06-26T05:24:19;11.90;;;6.90;;
70487;SDS011;57976;48.174;16.370;2023-06-26T05:26:28;13.20;;;6.90;;
70487;SDS011;57976;48.174;16.370;2023-06-26T05:28:33;11.50;;;7.10;;
70487;SDS011;57976;48.174;16.370;2023-06-26T05:30:39;11.70;;;6.70;;
70487;SDS011;57976;48.174;16.370;2023-06-26T05:32:44;10.90;;;6.80;;
70487;SDS011;57976;48.174;16.370;2023-06-26T05:34:52;11.50;;;6.90;;
70487;SDS011;57976;48.174;16.370;2023-06-26T05:37:02;11.00;;;7.00;;
70487;SDS011;57976;48.174;16.370;2023-06-26T05:39:08;12.00;;;7.20;;
70487;SDS011;57976;48.174;16.370;2023-06-26T05:41:14;11.70;;;6.70;;
70487;SDS011;57976;48.174;16.370;2023-06-26T05:43:20;11.80;;;6.60;;
70487;SDS011;57976;48.174;16.370;2023-06-26T05:45:30;12.30;;;6.70;;
70487;SDS011;57976;48.174;16.370;2023-06-26T05:47:35;11.50;;;6.80;;
70487;SDS011;57976;48.174;16.370;2023-06-26T05:49:43;11.80;;;7.30;;
70487;SDS011;57976;48.174;16.370;2023-06-26T05:51:48;11.30;;;6.90;;
70487;SDS011;57976;48.174;16.370;2023-06-26T05:53:54;11.00;;;6.80;;
70487;SDS011;57976;48.174;16.370;2023-06-26T05:55:59;11.30;;;6.80;;
70487;SDS011;57976;48.174;16.370;2023-06-26T05:58:06;11.60;;;6.80;;
70487;SDS011;57976;48.174;16.370;2023-06-26T06:00:19;10.50;;;7.00;;
70487;SDS011;57976;48.174;16.370;2023-06-26T06:02:27;11.30;;;6.80;;
70487;SDS011;57976;48.174;16.370;2023-06-26T06:04:33;9.80;;;6.40;;
70487;SDS011;57976;48.174;16.370;2023-06-26T06:06:38;11.70;;;7.00;;
70487;SDS011;57976;48.174;16.370;2023-06-26T06:08:43;10.30;;;6.80;;
70487;SDS011;57976;48.174;16.370;2023-06-26T06:10:51;10.70;;;6.60;;
70487;SDS011;57976;48.174;16.370;2023-06-26T06:12:57;10.60;;;6.70;;
70487;SDS011;57976;48.174;16.370;2023-06-26T06:15:02;10.60;;;6.50;;
70487;SDS011;57976;48.174;16.370;2023-06-26T06:17:07;9.90;;;6.30;;
70487;SDS011;57976;48.174;16.370;2023-06-26T06:19:12;9.50;;;6.10;;
70487;SDS011;57976;48.174;16.370;2023-06-26T06:21:18;9.20;;;5.80;;
70487;SDS011;57976;48.174;16.370;2023-06-26T06:23:23;10.10;;;6.20;;
70487;SDS011;57976;48.174;16.370;2023-06-26T06:25:30;10.80;;;6.30;;
70487;SDS011;57976;48.174;16.370;2023-06-26T06:27:36;10.10;;;6.00;;
70487;SDS011;57976;48.174;16.370;2023-06-26T06:29:41;10.50;;;6.60;;
70487;SDS011;57976;48.174;16.370;2023-06-26T06:31:46;9.70;;;6.30;;
70487;SDS011;57976;48.174;16.370;2023-06-26T06:33:51;11.00;;;6.20;;
70487;SDS011;57976;48.174;16.370;2023-06-26T06:35:55;9.70;;;5.70;;
70487;SDS011;57976;48.174;16.370;2023-06-26T06:38:03;10.90;;;5.90;;
70487;SDS011;57976;48.174;16.370;2023-06-26T06:40:12;9.30;;;6.00;;
70487;SDS011;57976;48.174;16.370;2023-06-26T06:42:17;10.40;;;6.60;;
70487;SDS011;57976;48.174;16.370;2023-06-26T06:44:25;9.50;;;6.00;;
70487;SDS011;57976;48.174;16.370;2023-06-26T06:46:29;10.20;;;6.50;;
70487;SDS011;57976;48.174;16.370;2023-06-26T06:48:34;11.20;;;6.70;;
70487;SDS011;57976;48.174;16.370;2023-06-26T06:50:39;7.50;;;4.40;;
70487;SDS011;57976;48.174;16.370;2023-06-26T06:52:44;8.50;;;3.90;;
70487;SDS011;57976;48.174;16.370;2023-06-26T06:54:52;6.80;;;3.50;;
70487;SDS011;57976;48.174;16.370;2023-06-26T06:56:58;7.70;;;3.70;;
70487;SDS011;57976;48.174;16.370;2023-06-26T06:59:03;7.60;;;3.80;;
70487;SDS011;57976;48.174;16.370;2023-06-26T07:01:08;7.80;;;3.80;;
70487;SDS011;57976;48.174;16.370;2023-06-26T07:03:13;8.40;;;4.20;;
70487;SDS011;57976;48.174;16.370;2023-06-26T07:05:18;8.90;;;4.10;;
70487;SDS011;57976;48.174;16.370;2023-06-26T07:07:23;7.00;;;3.70;;
70487;SDS011;57976;48.174;16.370;2023-06-26T07:09:33;10.10;;;4.00;;
70487;SDS011;57976;48.174;16.370;2023-06-26T07:11:38;6.20;;;3.50;;
70487;SDS011;57976;48.174;16.370;2023-06-26T07:13:43;7.00;;;3.40;;
70487;SDS011;57976;48.174;16.370;2023-06-26T07:15:51;6.70;;;3.80;;
70487;SDS011;57976;48.174;16.370;2023-06-26T07:17:55;7.20;;;3.50;;
70487;SDS011;57976;48.174;16.370;2023-06-26T07:20:20;7.00;;;3.50;;
70487;SDS011;57976;48.174;16.370;2023-06-26T07:22:27;7.90;;;3.80;;
70487;SDS011;57976;48.174;16.370;2023-06-26T07:24:32;7.30;;;3.60;;
70487;SDS011;57976;48.174;16.370;2023-06-26T07:26:37;6.70;;;3.70;;
70487;SDS011;57976;48.174;16.370;2023-06-26T07:28:49;7.40;;;3.80;;
70487;SDS011;57976;48.174;16.370;2023-06-26T07:30:53;7.10;;;3.70;;
70487;SDS011;57976;48.174;16.370;2023-06-26T07:33:01;7.00;;;3.80;;
70487;SDS011;57976;48.174;16.370;2023-06-26T07:35:11;6.60;;;3.60;;
70487;SDS011;57976;48.174;16.370;2023-06-26T07:37:16;6.70;;;3.50;;
70487;SDS011;57976;48.174;16.370;2023-06-26T07:39:21;7.00;;;3.30;;
70487;SDS011;57976;48.174;16.370;2023-06-26T07:41:26;6.20;;;3.30;;
70487;SDS011;57976;48.174;16.370;2023-06-26T07:43:34;7.40;;;3.40;;
70487;SDS011;57976;48.174;16.370;2023-06-26T07:46:00;7.00;;;3.80;;
70487;SDS011;57976;48.174;16.370;2023-06-26T07:48:05;7.00;;;4.30;;
70487;SDS011;57976;48.174;16.370;2023-06-26T07:50:14;7.40;;;4.10;;
70487;SDS011;57976;48.174;16.370;2023-06-26T07:52:23;6.80;;;3.80;;
70487;SDS011;57976;48.174;16.370;2023-06-26T07:54:28;8.10;;;4.00;;
70487;SDS011;57976;48.174;16.370;2023-06-26T07:56:51;7.70;;;3.80;;
70487;SDS011;57976;48.174;16.370;2023-06-26T07:59:00;7.60;;;3.80;;
70487;SDS011;57976;48.174;16.370;2023-06-26T08:01:05;6.90;;;3.80;;
70487;SDS011;57976;48.174;16.370;2023-06-26T08:03:11;7.10;;;3.90;;
70487;SDS011;57976;48.174;16.370;2023-06-26T08:05:35;7.30;;;3.80;;
70487;SDS011;57976;48.174;16.370;2023-06-26T08:07:41;7.50;;;3.90;;
70487;SDS011;57976;48.174;16.370;2023-06-26T08:09:46;7.30;;;4.00;;
70487;SDS011;57976;48.174;16.370;2023-06-26T08:11:51;7.10;;;3.90;;
70487;SDS011;57976;48.174;16.370;2023-06-26T08:13:56;7.60;;;4.00;;
70487;SDS011;57976;48.174;16.370;2023-06-26T08:16:02;7.90;;;4.00;;
70487;SDS011;57976;48.174;16.370;2023-06-26T08:18:09;8.40;;;4.20;;
70487;SDS011;57976;48.174;16.370;2023-06-26T08:20:13;7.10;;;4.00;;
70487;SDS011;57976;48.174;16.370;2023-06-26T08:22:19;7.10;;;3.90;;
70487;SDS011;57976;48.174;16.370;2023-06-26T08:24:23;7.40;;;3.90;;
70487;SDS011;57976;48.174;16.370;2023-06-26T08:26:28;6.60;;;3.70;;
70487;SDS011;57976;48.174;16.370;2023-06-26T08:28:33;7.10;;;4.10;;
70487;SDS011;57976;48.174;16.370;2023-06-26T08:30:41;8.20;;;4.10;;
70487;SDS011;57976;48.174;16.370;2023-06-26T08:32:46;10.10;;;4.30;;
70487;SDS011;57976;48.174;16.370;2023-06-26T08:34:52;6.90;;;3.80;;
70487;SDS011;57976;48.174;16.370;2023-06-26T08:36:56;8.30;;;4.20;;
70487;SDS011;57976;48.174;16.370;2023-06-26T08:39:01;7.10;;;4.10;;
70487;SDS011;57976;48.174;16.370;2023-06-26T08:41:09;6.70;;;4.10;;
70487;SDS011;57976;48.174;16.370;2023-06-26T08:43:15;9.00;;;4.20;;
70487;SDS011;57976;48.174;16.370;2023-06-26T08:45:20;8.00;;;3.90;;
70487;SDS011;57976;48.174;16.370;2023-06-26T08:47:25;7.60;;;4.40;;
70487;SDS011;57976;48.174;16.370;2023-06-26T08:49:37;7.50;;;4.10;;
70487;SDS011;57976;48.174;16.370;2023-06-26T08:51:49;7.70;;;4.40;;
70487;SDS011;57976;48.174;16.370;2023-06-26T08:54:00;8.30;;;4.30;;
70487;SDS011;57976;48.174;16.370;2023-06-26T08:56:14;7.90;;;4.40;;
70487;SDS011;57976;48.174;16.370;2023-06-26T08:58:20;8.60;;;4.30;;
70487;SDS011;57976;48.174;16.370;2023-06-26T09:00:25;7.50;;;4.30;;
70487;SDS011;57976;48.174;16.370;2023-06-26T09:02:30;10.20;;;4.50;;
70487;SDS011;57976;48.174;16.370;2023-06-26T09:04:36;7.00;;;4.00;;
70487;SDS011;57976;48.174;16.370;2023-06-26T09:06:45;8.30;;;4.30;;
70487;SDS011;57976;48.174;16.370;2023-06-26T09:08:50;8.30;;;4.40;;
70487;SDS011;57976;48.174;16.370;2023-06-26T09:10:55;7.70;;;4.40;;
70487;SDS011;57976;48.174;16.370;2023-06-26T09:13:00;9.70;;;4.60;;
70487;SDS011;57976;48.174;16.370;2023-06-26T09:15:09;8.30;;;4.50;;
70487;SDS011;57976;48.174;16.370;2023-06-26T09:17:21;8.50;;;4.30;;
70487;SDS011;57976;48.174;16.370;2023-06-26T09:19:32;9.50;;;4.50;;
70487;SDS011;57976;48.174;16.370;2023-06-26T09:21:40;7.60;;;4.20;;
70487;SDS011;57976;48.174;16.370;2023-06-26T09:23:47;7.80;;;4.40;;
70487;SDS011;57976;48.174;16.370;2023-06-26T09:25:53;9.20;;;4.60;;
70487;SDS011;57976;48.174;16.370;2023-06-26T09:27:59;8.60;;;5.00;;
70487;SDS011;57976;48.174;16.370;2023-06-26T09:30:04;8.20;;;4.70;;
70487;SDS011;57976;48.174;16.370;2023-06-26T09:32:11;8.10;;;4.80;;
70487;SDS011;57976;48.174;16.370;2023-06-26T09:34:19;8.50;;;4.70;;
70487;SDS011;57976;48.174;16.370;2023-06-26T09:36:25;7.90;;;4.70;;
70487;SDS011;57976;48.174;16.370;2023-06-26T09:38:35;8.00;;;4.20;;
70487;SDS011;57976;48.174;16.370;2023-06-26T09:40:41;8.70;;;4.30;;
70487;SDS011;57976;48.174;16.370;2023-06-26T09:42:49;7.90;;;4.60;;
70487;SDS011;57976;48.174;16.370;2023-06-26T09:44:54;7.90;;;4.80;;
70487;SDS011;57976;48.174;16.370;2023-06-26T09:47:00;7.20;;;4.40;;
70487;SDS011;57976;48.174;16.370;2023-06-26T09:49:06;8.20;;;4.60;;
70487;SDS011;57976;48.174;16.370;2023-06-26T09:51:12;7.20;;;3.80;;
70487;SDS011;57976;48.174;16.370;2023-06-26T09:53:19;7.50;;;4.70;;
70487;SDS011;57976;48.174;16.370;2023-06-26T09:55:25;8.00;;;4.40;;
70487;SDS011;57976;48.174;16.370;2023-06-26T09:57:30;7.90;;;4.60;;
70487;SDS011;57976;48.174;16.370;2023-06-26T09:59:40;7.00;;;4.20;;
70487;SDS011;57976;48.174;16.370;2023-06-26T10:01:46;6.70;;;3.80;;
70487;SDS011;57976;48.174;16.370;2023-06-26T10:03:51;6.90;;;4.40;;
70487;SDS011;57976;48.174;16.370;2023-06-26T10:05:56;7.20;;;4.30;;
70487;SDS011;57976;48.174;16.370;2023-06-26T10:08:03;7.50;;;4.20;;
70487;SDS011;57976;48.174;16.370;2023-06-26T10:10:12;7.00;;;4.30;;
70487;SDS011;57976;48.174;16.370;2023-06-26T10:12:20;7.50;;;4.30;;
70487;SDS011;57976;48.174;16.370;2023-06-26T10:14:32;7.10;;;4.10;;
70487;SDS011;57976;48.174;16.370;2023-06-26T10:16:38;9.00;;;4.20;;
70487;SDS011;57976;48.174;16.370;2023-06-26T10:18:46;8.50;;;4.60;;
70487;SDS011;57976;48.174;16.370;2023-06-26T10:20:54;7.00;;;4.70;;
70487;SDS011;57976;48.174;16.370;2023-06-26T10:23:00;7.30;;;4.30;;
70487;SDS011;57976;48.174;16.370;2023-06-26T10:25:28;7.30;;;4.30;;
70487;SDS011;57976;48.174;16.370;2023-06-26T10:27:41;7.70;;;4.30;;
70487;SDS011;57976;48.174;16.370;2023-06-26T10:29:54;7.10;;;3.70;;
70487;SDS011;57976;48.174;16.370;2023-06-26T10:32:03;6.60;;;3.70;;
70487;SDS011;57976;48.174;16.370;2023-06-26T10:34:16;8.70;;;3.70;;
70487;SDS011;57976;48.174;16.370;2023-06-26T10:36:27;7.70;;;3.90;;
70487;SDS011;57976;48.174;16.370;2023-06-26T10:40:58;6.80;;;3.80;;
70487;SDS011;57976;48.174;16.370;2023-06-26T10:43:29;6.90;;;3.80;;
70487;SDS011;57976;48.174;16.370;2023-06-26T10:45:42;6.50;;;3.50;;
70487;SDS011;57976;48.174;16.370;2023-06-26T10:47:52;7.00;;;3.60;;
70487;SDS011;57976;48.174;16.370;2023-06-26T10:52:27;6.30;;;3.70;;
70487;SDS011;57976;48.174;16.370;2023-06-26T10:54:42;7.70;;;4.00;;
70487;SDS011;57976;48.174;16.370;2023-06-26T10:56:49;8.20;;;4.20;;
70487;SDS011;57976;48.174;16.370;2023-06-26T10:58:57;7.00;;;3.90;;
70487;SDS011;57976;48.174;16.370;2023-06-26T11:01:22;9.00;;;4.20;;
70487;SDS011;57976;48.174;16.370;2023-06-26T11:03:30;7.40;;;3.70;;
70487;SDS011;57976;48.174;16.370;2023-06-26T11:05:38;6.30;;;3.60;;
70487;SDS011;57976;48.174;16.370;2023-06-26T11:10:09;6.90;;;3.70;;
70487;SDS011;57976;48.174;16.370;2023-06-26T11:12:17;7.50;;;3.90;;
70487;SDS011;57976;48.174;16.370;2023-06-26T11:14:39;6.40;;;3.50;;
70487;SDS011;57976;48.174;16.370;2023-06-26T11:16:48;6.50;;;3.70;;
70487;SDS011;57976;48.174;16.370;2023-06-26T11:18:53;6.20;;;3.40;;
70487;SDS011;57976;48.174;16.370;2023-06-26T11:21:09;7.30;;;4.00;;
70487;SDS011;57976;48.174;16.370;2023-06-26T11:23:16;6.90;;;3.80;;
70487;SDS011;57976;48.174;16.370;2023-06-26T11:25:25;6.90;;;3.60;;
70487;SDS011;57976;48.174;16.370;2023-06-26T11:27:32;7.40;;;3.70;;
70487;SDS011;57976;48.174;16.370;2023-06-26T11:29:48;6.30;;;3.80;;
70487;SDS011;57976;48.174;16.370;2023-06-26T11:31:57;7.50;;;4.00;;
70487;SDS011;57976;48.174;16.370;2023-06-26T11:34:08;6.50;;;3.80;;
70487;SDS011;57976;48.174;16.370;2023-06-26T11:36:15;6.50;;;3.60;;
70487;SDS011;57976;48.174;16.370;2023-06-26T11:38:20;6.90;;;4.20;;
70487;SDS011;57976;48.174;16.370;2023-06-26T11:40:26;6.80;;;3.90;;
70487;SDS011;57976;48.174;16.370;2023-06-26T11:42:31;6.90;;;4.00;;
70487;SDS011;57976;48.174;16.370;2023-06-26T11:44:40;7.00;;;3.90;;
70487;SDS011;57976;48.174;16.370;2023-06-26T11:46:46;6.90;;;4.10;;
70487;SDS011;57976;48.174;16.370;2023-06-26T11:48:54;6.80;;;4.10;;
70487;SDS011;57976;48.174;16.370;2023-06-26T11:50:59;7.20;;;4.20;;
70487;SDS011;57976;48.174;16.370;2023-06-26T11:53:07;7.20;;;3.90;;
70487;SDS011;57976;48.174;16.370;2023-06-26T11:55:11;6.60;;;3.80;;
70487;SDS011;57976;48.174;16.370;2023-06-26T11:57:17;7.00;;;3.60;;
70487;SDS011;57976;48.174;16.370;2023-06-26T11:59:22;6.60;;;3.80;;
70487;SDS011;57976;48.174;16.370;2023-06-26T12:01:35;7.50;;;3.30;;
70487;SDS011;57976;48.174;16.370;2023-06-26T12:03:42;7.30;;;3.50;;
70487;SDS011;57976;48.174;16.370;2023-06-26T12:05:47;6.50;;;3.80;;
70487;SDS011;57976;48.174;16.370;2023-06-26T12:07:52;6.60;;;3.80;;
70487;SDS011;57976;48.174;16.370;2023-06-26T12:09:59;7.00;;;3.30;;
70487;SDS011;57976;48.174;16.370;2023-06-26T12:12:05;6.30;;;3.60;;
70487;SDS011;57976;48.174;16.370;2023-06-26T12:14:11;8.00;;;3.80;;
70487;SDS011;57976;48.174;16.370;2023-06-26T12:16:18;6.40;;;3.70;;
70487;SDS011;57976;48.174;16.370;2023-06-26T12:18:23;6.30;;;3.40;;
70487;SDS011;57976;48.174;16.370;2023-06-26T12:20:28;6.80;;;3.60;;
70487;SDS011;57976;48.174;16.370;2023-06-26T12:22:39;6.80;;;3.60;;
70487;SDS011;57976;48.174;16.370;2023-06-26T12:24:50;6.70;;;4.00;;
70487;SDS011;57976;48.174;16.370;2023-06-26T12:27:19;6.30;;;3.50;;
70487;SDS011;57976;48.174;16.370;2023-06-26T12:29:31;6.20;;;3.40;;
70487;SDS011;57976;48.174;16.370;2023-06-26T12:31:39;6.00;;;3.60;;
70487;SDS011;57976;48.174;16.370;2023-06-26T12:33:44;6.70;;;3.60;;
70487;SDS011;57976;48.174;16.370;2023-06-26T12:35:49;6.70;;;4.00;;
70487;SDS011;57976;48.174;16.370;2023-06-26T12:37:55;7.00;;;3.90;;
70487;SDS011;57976;48.174;16.370;2023-06-26T12:40:03;6.30;;;3.60;;